createdAt,value
2017-07-25T00:00:07.249Z,99947.25
2017-07-25T00:02:39.208Z,99944.03
2017-07-25T00:05:10.933Z,99945.75
2017-07-25T00:07:42.957Z,99940.28
2017-07-25T00:10:15.522Z,99950.92
2017-07-25T00:12:47.064Z,99944.86
2017-07-25T00:15:18.489Z,99944.62
2017-07-25T00:17:50.660Z,99942.83
2017-07-25T00:20:22.301Z,99939.23
2017-07-25T00:22:53.827Z,99940.82
2017-07-25T00:25:25.714Z,99934.58
2017-07-25T00:27:57.196Z,99941.20
2017-07-25T00:30:28.660Z,99939.54
2017-07-25T00:33:01.673Z,99931.58
2017-07-25T00:35:33.762Z,99931.98
2017-07-25T00:38:08.620Z,99928.41
2017-07-25T00:40:42.644Z,99927.42
2017-07-25T00:43:16.290Z,99929.03
2017-07-25T00:45:50.853Z,99922.65
2017-07-25T00:48:27.908Z,99929.03
2017-07-25T00:51:02.244Z,99925.25
2017-07-25T00:53:35.795Z,99928.42
2017-07-25T00:56:10.971Z,99924.63
2017-07-25T00:58:44.165Z,99915.83
2017-07-25T01:01:18.130Z,99912.19
2017-07-25T01:03:52.397Z,99917.49
2017-07-25T01:06:27.418Z,99914.27
2017-07-25T01:11:43.798Z,99909.02
2017-07-25T01:14:17.153Z,99910.15
2017-07-25T01:16:50.759Z,99909.87
2017-07-25T01:21:56.966Z,99917.77
2017-07-25T01:24:30.002Z,99919.24
2017-07-25T01:27:02.845Z,99917.69
2017-07-25T01:29:36.802Z,99916.63
2017-07-25T01:32:10.335Z,99914.03
2017-07-25T01:34:43.156Z,99920.31
2017-07-25T01:37:15.805Z,99915.61
2017-07-25T01:39:48.575Z,99911.30
2017-07-25T01:42:21.846Z,99912.30
2017-07-25T01:44:54.728Z,99907.72
2017-07-25T01:47:27.608Z,99909.47
2017-07-25T01:50:00.925Z,99907.34
2017-07-25T01:52:32.885Z,99902.55
2017-07-25T01:55:05.305Z,99907.24
2017-07-25T01:57:36.754Z,99910.34
2017-07-25T02:00:08.571Z,99911.28
2017-07-25T02:02:40.055Z,99909.19
2017-07-25T02:05:11.818Z,99910.98
2017-07-25T02:07:43.343Z,99901.85
2017-07-25T02:10:15.025Z,99896.69
2017-07-25T02:12:47.144Z,99901.51
2017-07-25T02:15:18.638Z,99902.67
2017-07-25T02:17:50.030Z,99898.61
2017-07-25T02:20:22.049Z,99893.55
2017-07-25T02:22:53.442Z,99893.45
2017-07-25T02:25:24.839Z,99888.45
2017-07-25T02:27:56.707Z,99887.73
2017-07-25T02:30:28.128Z,99878.42
2017-07-25T02:32:59.613Z,99880.70
2017-07-25T02:35:31.009Z,99876.03
2017-07-25T02:38:07.381Z,99875.52
2017-07-25T02:40:39.219Z,99875.98
2017-07-25T02:43:10.932Z,99874.62
2017-07-25T02:45:42.365Z,99883.98
2017-07-25T02:48:14.646Z,99888.34
2017-07-25T02:50:46.571Z,99888.97
2017-07-25T02:53:18.060Z,99886.41
2017-07-25T02:55:49.532Z,99884.19
2017-07-25T02:58:21.387Z,99886.14
2017-07-25T03:00:52.880Z,99880.61
2017-07-25T03:03:24.292Z,99889.03
2017-07-25T03:05:55.701Z,99879.99
2017-07-25T03:08:27.243Z,99884.87
2017-07-25T03:12:28.254Z,99888.09
2017-07-25T03:14:59.995Z,99893.48
2017-07-25T03:17:34.653Z,99889.14
2017-07-25T03:20:06.822Z,99882.50
2017-07-25T03:22:38.759Z,99887.48
2017-07-25T03:25:10.662Z,99884.06
2017-07-25T03:27:42.095Z,99878.41
2017-07-25T03:30:13.629Z,99884.88
2017-07-25T03:35:17.805Z,99882.89
2017-07-25T03:37:49.543Z,99879.53
2017-07-25T03:40:21.402Z,99874.90
2017-07-25T03:42:52.802Z,99866.73
2017-07-25T03:45:24.361Z,99869.11
2017-07-25T03:47:55.743Z,99865.14
2017-07-25T03:50:27.117Z,99862.81
2017-07-25T03:52:58.517Z,99865.66
2017-07-25T03:55:30.389Z,99861.08
2017-07-25T03:58:02.384Z,99857.33
2017-07-25T04:00:34.147Z,99861.31
2017-07-25T04:03:05.538Z,99860.17
2017-07-25T04:05:36.909Z,99862.23
2017-07-25T04:08:08.620Z,99862.03
2017-07-25T04:10:40.039Z,99858.58
2017-07-25T04:13:11.575Z,99856.22
2017-07-25T04:15:43.356Z,99854.94
2017-07-25T04:18:14.897Z,99853.38
2017-07-25T04:20:46.305Z,99851.25
2017-07-25T04:23:18.339Z,99851.96
2017-07-25T04:25:49.913Z,99848.50
2017-07-25T04:28:21.551Z,99855.55
2017-07-25T04:30:53.436Z,99852.09
2017-07-25T04:33:24.869Z,99854.42
2017-07-25T04:35:56.580Z,99849.92
2017-07-25T04:38:27.944Z,99846.94
2017-07-25T04:40:59.301Z,99842.55
2017-07-25T04:43:31.102Z,99847.03
2017-07-25T04:46:03.280Z,99842.64
2017-07-25T04:48:34.681Z,99845.77
2017-07-25T04:51:06.596Z,99846.42
2017-07-25T04:53:38.061Z,99836.72
2017-07-25T04:56:09.661Z,99831.55
2017-07-25T04:58:41.593Z,99833.83
2017-07-25T05:01:13.211Z,99835.43
2017-07-25T05:03:44.713Z,99828.37
2017-07-25T05:06:16.456Z,99833.16
2017-07-25T05:08:48.090Z,99838.19
2017-07-25T05:11:19.684Z,99831.23
2017-07-25T05:13:51.200Z,99827.96
2017-07-25T05:16:22.617Z,99836.25
2017-07-25T05:18:54.172Z,99838.53
2017-07-25T05:21:25.581Z,99831.35
2017-07-25T05:23:57.431Z,99831.55
2017-07-25T05:26:28.801Z,99833.36
2017-07-25T05:29:00.386Z,99827.60
2017-07-25T05:31:31.709Z,99829.72
2017-07-25T05:34:03.858Z,99834.91
2017-07-25T05:36:35.840Z,99836.83
2017-07-25T05:39:07.270Z,99834.52
2017-07-25T05:41:39.082Z,99838.63
2017-07-25T05:44:11.476Z,99845.41
2017-07-25T05:46:43.302Z,99842.97
2017-07-25T05:49:14.642Z,99841.56
2017-07-25T05:51:47.052Z,99841.20
2017-07-25T05:54:24.109Z,99840.47
2017-07-25T05:56:55.859Z,99841.23
2017-07-25T05:59:27.288Z,99839.78
2017-07-25T06:01:58.838Z,99841.66
2017-07-25T06:04:30.561Z,99832.11
2017-07-25T06:07:01.930Z,99833.82
2017-07-25T06:09:33.663Z,99841.09
2017-07-25T06:12:06.102Z,99838.81
2017-07-25T06:14:37.592Z,99851.57
2017-07-25T06:17:09.310Z,99853.05
2017-07-25T06:19:40.766Z,99846.22
2017-07-25T06:22:12.248Z,99848.55
2017-07-25T06:24:44.139Z,99853.27
2017-07-25T06:27:17.119Z,99849.73
2017-07-25T06:29:48.877Z,99848.22
2017-07-25T06:32:20.262Z,99845.23
2017-07-25T06:34:51.653Z,99842.94
2017-07-25T06:37:23.570Z,99839.70
2017-07-25T06:39:55.022Z,99844.92
2017-07-25T06:42:26.717Z,99844.20
2017-07-25T06:44:58.146Z,99845.16
2017-07-25T06:47:29.600Z,99846.16
2017-07-25T06:50:01.851Z,99846.34
2017-07-25T06:55:07.386Z,99848.45
2017-07-25T06:57:38.841Z,99850.42
2017-07-25T07:00:12.782Z,99848.34
2017-07-25T07:02:46.120Z,99847.58
2017-07-25T07:08:14.976Z,99851.38
2017-07-25T07:13:41.341Z,99846.18
2017-07-25T07:16:13.388Z,99845.34
2017-07-25T07:18:44.777Z,99855.01
2017-07-25T07:21:18.167Z,99847.33
2017-07-25T07:23:49.605Z,99848.03
2017-07-25T07:26:21.121Z,99838.59
2017-07-25T07:28:52.519Z,99847.69
2017-07-25T07:31:24.377Z,99847.41
2017-07-25T07:33:55.863Z,99850.84
2017-07-25T07:36:27.291Z,99851.73
2017-07-25T07:38:58.787Z,99854.77
2017-07-25T07:41:30.239Z,99852.57
2017-07-25T07:44:01.708Z,99847.84
2017-07-25T07:46:33.673Z,99848.27
2017-07-25T07:49:05.140Z,99846.69
2017-07-25T07:51:36.614Z,99848.39
2017-07-25T07:54:10.516Z,99844.60
2017-07-25T07:56:42.560Z,99840.81
2017-07-25T08:02:10.210Z,99842.72
2017-07-25T08:04:41.700Z,99845.64
2017-07-25T08:07:13.450Z,99842.47
2017-07-25T08:09:44.878Z,99845.72
2017-07-25T08:12:18.102Z,99846.89
2017-07-25T08:14:53.499Z,99850.42
2017-07-25T08:17:28.291Z,99849.24
2017-07-25T08:20:05.436Z,99843.23
2017-07-25T08:22:37.461Z,99848.02
2017-07-25T08:25:14.041Z,99849.70
2017-07-25T08:27:45.756Z,99847.55
2017-07-25T08:30:19.192Z,99848.58
2017-07-25T08:32:50.988Z,99846.85
2017-07-25T08:35:27.970Z,99849.01
2017-07-25T08:38:09.394Z,99843.08
2017-07-25T08:40:41.215Z,99844.39
2017-07-25T08:43:15.027Z,99847.05
2017-07-25T08:45:48.481Z,99847.54
2017-07-25T08:48:24.304Z,99849.36
2017-07-25T08:53:52.266Z,99852.00
2017-07-25T08:56:23.887Z,99851.73
2017-07-25T08:58:56.150Z,99853.95
2017-07-25T09:01:27.658Z,99850.95
2017-07-25T09:03:59.563Z,99852.02
2017-07-25T09:06:30.984Z,99856.69
2017-07-25T09:09:02.411Z,99851.30
2017-07-25T09:11:34.270Z,99858.38
2017-07-25T09:14:08.924Z,99855.48
2017-07-25T09:16:41.516Z,99855.84
2017-07-25T09:19:16.105Z,99857.45
2017-07-25T09:22:03.807Z,99846.06
2017-07-25T09:24:37.280Z,99854.14
2017-07-25T09:27:09.080Z,99849.14
2017-07-25T09:29:41.368Z,99851.02
2017-07-25T09:32:14.995Z,99851.42
2017-07-25T09:34:47.630Z,99851.38
2017-07-25T09:37:19.170Z,99853.63
2017-07-25T09:39:50.762Z,99851.50
2017-07-25T09:42:23.258Z,99853.83
2017-07-25T09:44:54.991Z,99860.05
2017-07-25T09:47:26.951Z,99862.37
2017-07-25T09:49:58.957Z,99857.75
2017-07-25T09:52:30.564Z,99859.22
2017-07-25T09:55:04.130Z,99854.52
2017-07-25T09:57:43.726Z,99860.03
2017-07-25T10:00:16.329Z,99860.95
2017-07-25T10:02:48.522Z,99862.92
2017-07-25T10:05:20.661Z,99860.87
2017-07-25T10:07:52.803Z,99863.32
2017-07-25T10:10:38.382Z,99861.98
2017-07-25T10:13:11.959Z,99859.05
2017-07-25T10:15:44.109Z,99862.28
2017-07-25T10:18:23.493Z,99861.52
2017-07-25T10:20:59.940Z,99857.75
2017-07-25T10:23:43.843Z,99864.61
2017-07-25T10:26:19.267Z,99856.48
2017-07-25T10:28:52.267Z,99863.19
2017-07-25T10:31:24.795Z,99853.55
2017-07-25T10:33:56.596Z,99857.96
2017-07-25T10:36:28.778Z,99858.45
2017-07-25T10:39:00.648Z,99850.09
2017-07-25T10:41:32.489Z,99856.13
2017-07-25T10:44:12.027Z,99844.45
2017-07-25T10:46:46.995Z,99853.39
2017-07-25T10:49:19.614Z,99849.91
2017-07-25T10:51:53.923Z,99850.69
2017-07-25T10:57:22.440Z,99852.05
2017-07-25T11:02:42.959Z,99848.81
2017-07-25T11:05:17.011Z,99842.63
2017-07-25T11:07:52.821Z,99842.89
2017-07-25T11:10:29.080Z,99843.55
2017-07-25T11:13:02.630Z,99837.48
2017-07-25T11:15:34.440Z,99842.58
2017-07-25T11:18:07.231Z,99844.31
2017-07-25T11:20:39.392Z,99837.77
2017-07-25T11:23:11.091Z,99842.78
2017-07-25T11:25:42.796Z,99838.98
2017-07-25T11:28:21.573Z,99838.58
2017-07-25T11:30:55.167Z,99839.00
2017-07-25T11:33:29.521Z,99839.91
2017-07-25T11:36:11.584Z,99836.91
2017-07-25T11:38:46.807Z,99843.47
2017-07-25T11:41:21.856Z,99843.70
2017-07-25T11:43:53.929Z,99848.75
2017-07-25T11:46:25.794Z,99854.20
2017-07-25T11:52:05.446Z,99847.53
2017-07-25T11:54:49.409Z,99850.78
2017-07-25T11:57:25.814Z,99853.05
2017-07-25T12:00:09.207Z,99852.94
2017-07-25T12:02:50.712Z,99856.67
2017-07-25T12:05:38.056Z,99851.95
2017-07-25T12:08:30.783Z,99854.95
2017-07-25T12:14:01.905Z,99857.53
2017-07-25T12:16:57.525Z,99851.52
2017-07-25T12:19:38.072Z,99855.40
2017-07-25T12:28:11.033Z,99855.80
2017-07-25T12:30:43.294Z,99846.27
2017-07-25T12:33:16.047Z,99844.45
2017-07-25T12:35:47.530Z,99841.52
2017-07-25T12:38:21.447Z,99839.02
2017-07-25T12:40:54.243Z,99833.55
2017-07-25T12:43:26.824Z,99832.23
2017-07-25T12:45:58.840Z,99830.77
2017-07-25T12:48:31.969Z,99824.77
2017-07-25T12:51:05.134Z,99823.58
2017-07-25T12:53:36.667Z,99819.00
2017-07-25T12:56:14.604Z,99814.68
2017-07-25T12:58:47.720Z,99810.50
2017-07-25T13:01:28.974Z,99808.89
2017-07-25T13:04:00.806Z,99813.44
2017-07-25T13:06:32.470Z,99816.01
2017-07-25T13:09:05.640Z,99817.92
2017-07-25T13:11:37.114Z,99820.39
2017-07-25T13:14:17.159Z,99822.12
2017-07-25T13:16:48.972Z,99824.79
2017-07-25T13:19:20.583Z,99813.59
2017-07-25T13:21:52.081Z,99814.95
2017-07-25T13:24:24.301Z,99815.31
2017-07-25T13:26:55.861Z,99809.44
2017-07-25T13:29:28.369Z,99813.70
2017-07-25T13:32:00.611Z,99810.41
2017-07-25T13:34:32.389Z,99810.57
2017-07-25T13:37:04.291Z,99816.93
2017-07-25T13:39:36.534Z,99816.62
2017-07-25T13:42:09.196Z,99814.50
2017-07-25T13:44:41.806Z,99805.97
2017-07-25T13:47:13.805Z,99806.39
2017-07-25T13:49:46.052Z,99809.28
2017-07-25T13:52:20.376Z,99817.16
2017-07-25T13:54:52.692Z,99820.78
2017-07-25T13:57:25.738Z,99821.99
2017-07-25T14:00:00.139Z,99827.48
2017-07-25T14:02:36.617Z,99825.52
2017-07-25T14:05:14.709Z,99831.40
2017-07-25T14:07:53.651Z,99827.25
2017-07-25T14:13:21.611Z,99823.39
2017-07-25T14:15:53.945Z,99823.47
2017-07-25T14:18:26.186Z,99822.43
2017-07-25T14:20:59.737Z,99823.87
2017-07-25T14:23:32.209Z,99829.06
2017-07-25T14:26:06.104Z,99825.30
2017-07-25T14:28:38.339Z,99822.53
2017-07-25T14:31:11.295Z,99822.06
2017-07-25T14:33:44.830Z,99824.48
2017-07-25T14:36:16.835Z,99815.88
2017-07-25T14:38:48.503Z,99818.55
2017-07-25T14:41:23.534Z,99818.62
2017-07-25T14:43:55.977Z,99825.41
2017-07-25T14:46:28.562Z,99822.19
2017-07-25T14:54:37.039Z,99821.10
2017-07-25T14:57:09.656Z,99827.88
2017-07-25T14:59:41.255Z,99818.16
2017-07-25T15:02:13.370Z,99827.45
2017-07-25T15:04:45.104Z,99821.33
2017-07-25T15:07:17.242Z,99819.30
2017-07-25T15:09:48.959Z,99812.45
2017-07-25T15:12:20.405Z,99816.20
2017-07-25T15:14:52.468Z,99807.92
2017-07-25T15:17:23.938Z,99804.89
2017-07-25T15:19:55.626Z,99807.12
2017-07-25T15:22:27.701Z,99797.08
2017-07-25T15:24:59.173Z,99797.70
2017-07-25T15:27:30.850Z,99803.97
2017-07-25T15:30:03.978Z,99812.33
2017-07-25T15:32:35.360Z,99802.51
2017-07-25T15:35:07.828Z,99800.92
2017-07-25T15:37:39.187Z,99793.77
2017-07-25T15:40:10.853Z,99794.67
2017-07-25T15:42:42.616Z,99799.97
2017-07-25T15:45:14.128Z,99802.65
2017-07-25T15:47:45.965Z,99799.04
2017-07-25T15:50:17.499Z,99796.72
2017-07-25T15:52:48.920Z,99801.66
2017-07-25T15:55:20.530Z,99799.58
2017-07-25T15:57:52.172Z,99802.36
2017-07-25T16:00:24.134Z,99797.86
2017-07-25T16:02:55.611Z,99796.84
2017-07-25T16:05:27.038Z,99798.10
2017-07-25T16:07:59.226Z,99797.95
2017-07-25T16:10:30.781Z,99797.31
2017-07-25T16:13:02.501Z,99793.18
2017-07-25T16:15:34.206Z,99797.26
2017-07-25T16:18:07.215Z,99791.40
2017-07-25T16:20:39.113Z,99791.85
2017-07-25T16:23:10.505Z,99782.09
2017-07-25T16:25:42.148Z,99773.22
2017-07-25T16:28:14.212Z,99783.08
2017-07-25T16:30:45.674Z,99780.78
2017-07-25T16:33:17.110Z,99776.94
2017-07-25T16:35:50.192Z,99772.34
2017-07-25T16:38:21.624Z,99776.64
2017-07-25T16:40:53.040Z,99769.14
2017-07-25T16:43:24.995Z,99765.08
2017-07-25T16:45:56.385Z,99763.84
2017-07-25T16:48:28.158Z,99761.24
2017-07-25T16:50:59.549Z,99756.34
2017-07-25T16:53:31.033Z,99755.00
2017-07-25T16:56:03.418Z,99757.45
2017-07-25T16:58:35.050Z,99752.44
2017-07-25T17:01:06.870Z,99757.67
2017-07-25T17:03:38.410Z,99753.97
2017-07-25T17:06:09.969Z,99751.88
2017-07-25T17:08:41.601Z,99749.05
2017-07-25T17:11:13.001Z,99748.18
2017-07-25T17:13:44.893Z,99742.23
2017-07-25T17:16:16.404Z,99739.94
2017-07-25T17:18:48.106Z,99730.98
2017-07-25T17:21:19.873Z,99743.50
2017-07-25T17:23:51.279Z,99733.50
2017-07-25T17:26:22.722Z,99729.03
2017-07-25T17:28:54.585Z,99728.69
2017-07-25T17:31:26.076Z,99727.88
2017-07-25T17:33:57.559Z,99729.73
2017-07-25T17:36:29.395Z,99723.07
2017-07-25T17:39:00.841Z,99728.05
2017-07-25T17:41:32.521Z,99724.48
2017-07-25T17:44:04.646Z,99718.47
2017-07-25T17:46:36.271Z,99720.91
2017-07-25T17:49:08.068Z,99719.52
2017-07-25T17:51:39.530Z,99718.59
2017-07-25T17:54:11.075Z,99722.84
2017-07-25T17:56:43.221Z,99723.88
2017-07-25T17:59:14.694Z,99722.98
2017-07-25T18:01:46.120Z,99722.14
2017-07-25T18:04:18.791Z,99722.95
2017-07-25T18:06:50.741Z,99723.03
2017-07-25T18:09:22.865Z,99723.46
2017-07-25T18:11:54.368Z,99730.42
2017-07-25T18:14:26.120Z,99724.14
2017-07-25T18:16:58.744Z,99721.52
2017-07-25T18:19:31.243Z,99729.28
2017-07-25T18:22:04.900Z,99726.41
2017-07-25T18:24:37.263Z,99719.63
2017-07-25T18:27:09.265Z,99717.03
2017-07-25T18:29:40.654Z,99715.69
2017-07-25T18:32:12.425Z,99712.00
2017-07-25T18:34:44.084Z,99714.88
2017-07-25T18:37:16.050Z,99711.45
2017-07-25T18:39:48.569Z,99702.44
2017-07-25T18:42:20.829Z,99707.96
2017-07-25T18:44:52.853Z,99694.98
2017-07-25T18:47:24.283Z,99704.21
2017-07-25T18:49:56.255Z,99699.16
2017-07-25T18:52:27.829Z,99699.61
2017-07-25T18:54:59.636Z,99699.22
2017-07-25T18:57:31.118Z,99697.95
2017-07-25T19:00:03.421Z,99692.63
2017-07-25T19:02:35.350Z,99691.28
2017-07-25T19:05:06.900Z,99686.71
2017-07-25T19:07:38.465Z,99684.42
2017-07-25T19:10:09.892Z,99687.27
2017-07-25T19:12:41.722Z,99687.33
2017-07-25T19:15:13.110Z,99681.84
2017-07-25T19:17:44.475Z,99686.72
2017-07-25T19:20:16.253Z,99687.73
2017-07-25T19:22:48.232Z,99692.12
2017-07-25T19:25:19.849Z,99688.16
2017-07-25T19:27:51.865Z,99685.45
2017-07-25T19:30:23.436Z,99687.48
2017-07-25T19:32:54.991Z,99691.71
2017-07-25T19:35:26.756Z,99685.22
2017-07-25T19:37:58.301Z,99688.35
2017-07-25T19:40:29.765Z,99678.58
2017-07-25T19:43:01.816Z,99676.02
2017-07-25T19:45:33.458Z,99680.52
2017-07-25T19:48:21.663Z,99673.64
2017-07-25T19:53:21.804Z,99679.63
2017-07-25T19:55:55.099Z,99679.28
2017-07-25T19:58:30.042Z,99675.70
2017-07-25T20:01:03.064Z,99668.60
2017-07-25T20:03:34.848Z,99665.47
2017-07-25T20:06:13.436Z,99660.79
2017-07-25T20:08:52.747Z,99654.39
2017-07-25T20:11:31.763Z,99654.31
2017-07-25T20:16:59.649Z,99649.52
2017-07-25T20:19:34.208Z,99647.84
2017-07-25T20:22:06.530Z,99644.65
2017-07-25T20:24:38.220Z,99640.95
2017-07-25T20:27:09.659Z,99631.27
2017-07-25T20:29:41.109Z,99633.01
2017-07-25T20:32:12.628Z,99632.17
2017-07-25T20:34:45.374Z,99627.18
2017-07-25T20:37:16.799Z,99627.88
2017-07-25T20:39:48.179Z,99624.17
2017-07-25T20:42:19.628Z,99619.02
2017-07-25T20:44:51.001Z,99610.09
2017-07-25T20:47:22.358Z,99604.79
2017-07-25T20:49:53.887Z,99612.45
2017-07-25T20:52:25.314Z,99598.64
2017-07-25T20:54:56.769Z,99598.08
2017-07-25T20:57:28.215Z,99597.83
2017-07-25T20:59:59.795Z,99598.33
2017-07-25T21:02:31.303Z,99586.67
2017-07-25T21:05:03.102Z,99594.92
2017-07-25T21:07:34.632Z,99591.94
2017-07-25T21:10:06.087Z,99589.63
2017-07-25T21:12:37.589Z,99603.47
2017-07-25T21:15:09.982Z,99590.14
2017-07-25T21:17:41.540Z,99589.47
2017-07-25T21:20:13.283Z,99586.96
2017-07-25T21:22:45.737Z,99593.38
2017-07-25T21:25:17.468Z,99583.55
2017-07-25T21:27:48.977Z,99575.22
2017-07-25T21:30:20.850Z,99574.77
2017-07-25T21:32:52.638Z,99565.02
2017-07-25T21:35:24.375Z,99573.05
2017-07-25T21:37:56.041Z,99564.81
2017-07-25T21:40:27.997Z,99562.59
2017-07-25T21:42:59.414Z,99566.91
2017-07-25T21:45:30.780Z,99554.84
2017-07-25T21:48:02.648Z,99546.92
2017-07-25T21:50:34.034Z,99541.27
2017-07-25T21:53:05.820Z,99545.45
2017-07-25T21:55:37.153Z,99543.52
2017-07-25T21:58:10.403Z,99532.56
2017-07-25T22:00:43.647Z,99533.28
2017-07-25T22:05:22.377Z,99541.56
2017-07-25T22:10:49.294Z,99534.41
2017-07-25T22:13:20.784Z,99532.28
2017-07-25T22:15:52.384Z,99534.39
2017-07-25T22:18:26.348Z,99527.91
2017-07-25T22:20:59.491Z,99539.91
2017-07-25T22:26:26.295Z,99533.36
2017-07-25T22:28:57.863Z,99531.61
2017-07-25T22:31:29.283Z,99532.38
2017-07-25T22:34:04.880Z,99530.63
2017-07-25T22:36:36.400Z,99538.79
2017-07-25T22:39:07.832Z,99530.42
2017-07-25T22:41:39.302Z,99537.13
2017-07-25T22:44:12.241Z,99535.09
2017-07-25T22:46:43.837Z,99525.20
2017-07-25T22:49:15.397Z,99526.13
2017-07-25T22:51:47.057Z,99527.37
2017-07-25T22:54:18.545Z,99531.91
2017-07-25T22:56:50.152Z,99524.46
2017-07-25T22:59:21.603Z,99527.81
2017-07-25T23:01:53.317Z,99522.09
2017-07-25T23:04:24.770Z,99515.67
2017-07-25T23:06:56.415Z,99525.90
2017-07-25T23:09:28.323Z,99519.15
2017-07-25T23:11:59.795Z,99520.48
2017-07-25T23:14:31.317Z,99517.42
2017-07-25T23:17:03.200Z,99521.05
2017-07-25T23:19:34.745Z,99519.44
2017-07-25T23:22:08.651Z,99517.14
2017-07-25T23:24:40.106Z,99507.58
2017-07-25T23:27:13.451Z,99503.48
2017-07-25T23:29:45.020Z,99505.14
2017-07-25T23:32:19.871Z,99518.47
2017-07-25T23:34:51.426Z,99512.10
2017-07-25T23:37:22.867Z,99510.22
2017-07-25T23:39:54.314Z,99513.57
2017-07-25T23:42:25.733Z,99518.80
2017-07-25T23:44:57.323Z,99513.66
2017-07-25T23:47:35.561Z,99511.55
2017-07-25T23:50:08.065Z,99512.13
2017-07-25T23:52:39.465Z,99511.91
2017-07-25T23:55:10.916Z,99521.87
2017-07-25T23:57:42.441Z,99525.22
